Time;durP1;ratioP1;P1;durP2;ratioP2;P2;SDS_P1;SDS_P2;PMS_P1;PMS_P2;Temp;Humidity;BMP_temperature;BMP_pressure;BME280_temperature;BME280_humidity;BME280_pressure;Samples;Min_cycle;Max_cycle;Signal;HPM_P1;HPM_P2
2024/01/09 04:00:43;;;;;;;8.00;3.42;;;-3.50;99.90;;;;;;5964778;23;21090;-76
2024/01/09 04:04:04;;;;;;;;;;;;;;;;;;;;;
2024/01/09 04:06:52;;;;;;;8.00;3.75;;;-3.50;99.90;;;;;;4964581;28;20519;-75
2024/01/09 04:09:17;;;;;;;8.18;3.58;;;-3.50;99.90;;;;;;4957626;28;20122;-75
2024/01/09 04:11:46;;;;;;;13.65;4.00;;;-3.50;99.90;;;;;;4975194;28;20110;-75
2024/01/09 04:14:12;;;;;;;8.40;3.40;;;-3.50;99.90;;;;;;4975459;28;20129;-75
2024/01/09 04:16:38;;;;;;;7.40;3.88;;;-3.50;99.90;;;;;;4957426;28;20135;-75
2024/01/09 04:19:03;;;;;;;7.82;3.45;;;-3.60;99.90;;;;;;4941514;28;20042;-75
2024/01/09 04:21:29;;;;;;;8.02;3.22;;;-3.60;99.90;;;;;;4957480;28;20043;-76
2024/01/09 04:23:55;;;;;;;10.13;3.33;;;-3.60;99.90;;;;;;4974741;28;20039;-76
2024/01/09 04:26:21;;;;;;;7.55;2.95;;;-3.60;99.90;;;;;;4957396;28;20046;-75
2024/01/09 04:28:46;;;;;;;7.05;3.15;;;-3.60;99.90;;;;;;4974959;28;20107;-75
2024/01/09 04:31:12;;;;;;;8.27;4.30;;;-3.60;99.90;;;;;;4957161;28;20074;-76
2024/01/09 04:33:41;;;;;;;9.13;3.42;;;-3.60;99.90;;;;;;4957456;28;20087;-75
2024/01/09 04:36:07;;;;;;;6.57;3.03;;;-3.70;99.90;;;;;;4974800;28;20038;-76
2024/01/09 04:38:32;;;;;;;7.15;3.33;;;-3.70;99.90;;;;;;4957019;28;20482;-76
2024/01/09 04:40:58;;;;;;;6.28;3.20;;;-3.70;99.90;;;;;;4957112;28;20082;-76
2024/01/09 04:43:23;;;;;;;6.70;3.10;;;-3.70;99.90;;;;;;4957439;28;20394;-76
2024/01/09 04:45:49;;;;;;;9.85;3.22;;;-3.70;99.90;;;;;;4974409;28;20031;-76
2024/01/09 04:48:14;;;;;;;6.47;2.63;;;-3.70;99.90;;;;;;4957133;28;20049;-75
2024/01/09 04:50:40;;;;;;;6.88;3.15;;;-3.70;99.90;;;;;;4974302;28;20047;-76
2024/01/09 04:53:06;;;;;;;8.20;2.92;;;-3.70;99.90;;;;;;4974089;28;20044;-76
2024/01/09 04:55:31;;;;;;;7.18;2.50;;;-3.70;99.90;;;;;;4974529;28;20042;-76
2024/01/09 04:57:57;;;;;;;7.18;3.00;;;-3.70;99.90;;;;;;4940866;28;20042;-76
2024/01/09 05:00:23;;;;;;;7.75;3.00;;;-3.70;99.90;;;;;;4974414;28;20038;-76
2024/01/09 05:02:49;;;;;;;5.50;2.83;;;-3.80;99.90;;;;;;4974135;28;20402;-75
2024/01/09 05:05:15;;;;;;;7.80;3.10;;;-3.80;99.90;;;;;;4974765;28;20031;-76
2024/01/09 05:07:40;;;;;;;8.40;3.60;;;-3.80;99.90;;;;;;4956903;28;20066;-76
2024/01/09 05:10:06;;;;;;;6.75;2.80;;;-3.80;99.90;;;;;;4956921;28;20092;-76
2024/01/09 05:12:32;;;;;;;11.40;3.75;;;-3.80;99.90;;;;;;4956712;28;20046;-76
2024/01/09 05:14:58;;;;;;;9.60;3.40;;;-3.80;99.90;;;;;;4974386;28;20054;-75
2024/01/09 05:17:23;;;;;;;10.15;3.15;;;-3.80;99.90;;;;;;4974332;28;20074;-76
2024/01/09 05:19:49;;;;;;;9.35;3.33;;;-3.80;99.90;;;;;;4956923;28;20049;-75
2024/01/09 05:22:14;;;;;;;7.80;3.10;;;-3.80;99.90;;;;;;4956527;28;20046;-76
2024/01/09 05:24:40;;;;;;;6.63;2.83;;;-3.80;99.90;;;;;;4974281;28;20042;-76
2024/01/09 05:27:06;;;;;;;6.82;3.25;;;-3.90;99.90;;;;;;4973913;28;20477;-76
2024/01/09 05:29:31;;;;;;;7.60;3.13;;;-3.80;99.90;;;;;;4956610;28;20043;-76
2024/01/09 05:31:57;;;;;;;10.45;3.50;;;-3.90;99.90;;;;;;4956781;28;20042;-78
2024/01/09 05:34:22;;;;;;;8.68;3.35;;;-3.90;99.90;;;;;;4956843;28;20414;-76
2024/01/09 05:36:48;;;;;;;8.35;3.17;;;-3.90;99.90;;;;;;4974092;28;20101;-75
2024/01/09 05:39:14;;;;;;;8.07;3.05;;;-3.90;99.90;;;;;;4956765;28;20101;-76
2024/01/09 05:41:40;;;;;;;8.45;3.60;;;-3.90;99.90;;;;;;4974025;28;20042;-75
2024/01/09 05:44:06;;;;;;;7.97;3.30;;;-3.90;99.90;;;;;;4956710;28;20427;-76
2024/01/09 05:46:31;;;;;;;8.52;3.60;;;-3.90;99.90;;;;;;4956418;28;20548;-76
2024/01/09 05:48:57;;;;;;;8.48;4.05;;;-4.00;99.90;;;;;;4973758;28;20039;-75
2024/01/09 05:51:23;;;;;;;7.53;3.35;;;-3.90;99.90;;;;;;5029396;23;20177;-75
2024/01/09 05:53:48;;;;;;;9.18;3.55;;;-3.90;99.90;;;;;;4974013;28;20438;-76
2024/01/09 05:56:14;;;;;;;8.10;3.42;;;-3.90;99.90;;;;;;4973699;28;20050;-76
2024/01/09 05:58:40;;;;;;;7.90;3.35;;;-4.00;99.90;;;;;;4973873;28;20038;-76
2024/01/09 06:01:05;;;;;;;7.90;3.45;;;-4.00;99.90;;;;;;4965026;28;20407;-76
2024/01/09 06:03:31;;;;;;;5.90;3.17;;;-4.00;99.90;;;;;;4939073;29;20043;-76
2024/01/09 06:05:56;;;;;;;7.90;3.10;;;-4.00;99.90;;;;;;4940698;29;20051;-77
2024/01/09 06:08:23;;;;;;;8.80;3.03;;;-4.00;99.90;;;;;;4958145;29;20039;-75
2024/01/09 06:10:48;;;;;;;10.27;3.63;;;-4.00;99.90;;;;;;4957858;28;20043;-75
2024/01/09 06:13:14;;;;;;;8.38;2.80;;;-4.00;99.90;;;;;;4940802;29;20130;-76
2024/01/09 06:15:39;;;;;;;9.10;3.42;;;-4.00;99.90;;;;;;4958204;29;20467;-76
2024/01/09 06:18:05;;;;;;;6.55;2.78;;;-4.00;99.90;;;;;;4957841;29;20043;-75
2024/01/09 06:23:24;;;;;;;12.02;3.47;;;-4.00;99.90;;;;;;4570216;26;20063;-75
2024/01/09 06:25:50;;;;;;;7.80;3.00;;;-4.00;99.90;;;;;;4940291;29;20047;-74
2024/01/09 06:28:16;;;;;;;8.68;3.85;;;-4.10;99.90;;;;;;4940312;29;20042;-75
2024/01/09 06:30:41;;;;;;;7.15;3.25;;;-4.10;99.90;;;;;;4940046;29;20058;-76
2024/01/09 06:33:07;;;;;;;9.07;4.00;;;-4.10;99.90;;;;;;4957906;29;20046;-76
2024/01/09 06:35:33;;;;;;;8.43;3.40;;;-4.10;99.90;;;;;;4957562;29;20143;-75
2024/01/09 06:37:58;;;;;;;6.72;2.88;;;-4.10;99.90;;;;;;4939925;29;20046;-75
2024/01/09 06:40:24;;;;;;;7.78;3.35;;;-4.10;99.90;;;;;;4957140;28;20086;-75
2024/01/09 06:42:51;;;;;;;9.20;3.08;;;-4.10;99.90;;;;;;4941049;29;20184;-75
2024/01/09 06:45:17;;;;;;;7.57;3.20;;;-4.10;99.90;;;;;;4939920;29;20043;-76
2024/01/09 06:47:42;;;;;;;8.18;3.40;;;-4.10;99.90;;;;;;4939945;29;20101;-76
2024/01/09 06:50:09;;;;;;;7.03;3.40;;;-4.10;99.90;;;;;;4957106;29;20129;-75
2024/01/09 06:55:55;;;;;;;9.07;3.65;;;-4.10;99.90;;;;;;4863602;23;20074;-76
2024/01/09 06:58:58;;;;;;;10.73;4.32;;;-4.20;99.90;;;;;;4971181;28;20047;-75
2024/01/09 07:01:35;;;;;;;11.63;4.40;;;-4.20;99.90;;;;;;4975957;28;20041;-76
2024/01/09 07:04:01;;;;;;;9.00;3.95;;;-4.20;99.90;;;;;;4958758;28;20054;-76
2024/01/09 07:06:26;;;;;;;8.73;3.88;;;-4.20;99.90;;;;;;4958930;28;20046;-76
2024/01/09 07:08:52;;;;;;;7.88;3.83;;;-4.20;99.90;;;;;;4958760;28;20482;-76
2024/01/09 07:11:18;;;;;;;8.50;3.03;;;-4.20;99.90;;;;;;4958607;28;20097;-76
2024/01/09 07:13:43;;;;;;;8.32;3.30;;;-4.20;99.90;;;;;;4958680;28;20042;-76
2024/01/09 07:16:09;;;;;;;7.22;3.55;;;-4.20;99.90;;;;;;4976224;28;20138;-76
2024/01/09 07:18:35;;;;;;;8.25;3.58;;;-4.20;99.90;;;;;;4976129;28;20047;-75
2024/01/09 07:21:01;;;;;;;6.63;3.35;;;-4.20;99.90;;;;;;4959183;28;20035;-76
2024/01/09 07:23:26;;;;;;;7.55;3.03;;;-4.20;99.90;;;;;;4958687;28;20514;-75
2024/01/09 07:25:52;;;;;;;7.10;3.33;;;-4.30;99.90;;;;;;4958406;28;20039;-75
2024/01/09 07:28:18;;;;;;;7.50;3.22;;;-4.30;99.90;;;;;;4975939;28;20042;-76
2024/01/09 07:30:44;;;;;;;11.75;3.63;;;-4.30;99.90;;;;;;4975863;28;20145;-75
2024/01/09 07:33:09;;;;;;;10.57;3.25;;;-4.30;99.90;;;;;;4958114;28;20067;-75
2024/01/09 07:35:37;;;;;;;7.28;3.53;;;-4.30;99.90;;;;;;4958218;28;20045;-76
2024/01/09 07:38:04;;;;;;;7.78;3.53;;;-4.30;99.90;;;;;;4975785;28;20054;-73
2024/01/09 07:40:29;;;;;;;8.57;3.58;;;-4.30;99.90;;;;;;4957878;28;20173;-76
2024/01/09 07:42:59;;;;;;;8.88;3.38;;;-4.30;99.90;;;;;;4957910;28;20096;-76
2024/01/09 07:45:29;;;;;;;8.68;3.45;;;-4.30;99.90;;;;;;4958391;28;20050;-77
2024/01/09 07:47:55;;;;;;;10.48;3.72;;;-4.30;99.90;;;;;;4975427;28;20039;-77
2024/01/09 07:50:22;;;;;;;8.93;3.58;;;-4.30;99.90;;;;;;4958474;28;20530;-76
2024/01/09 07:52:48;;;;;;;6.57;3.30;;;-4.30;99.90;;;;;;4975534;28;20049;-77
2024/01/09 07:55:14;;;;;;;7.35;3.20;;;-4.30;99.90;;;;;;4942643;28;20061;-76
2024/01/09 07:57:40;;;;;;;8.77;3.25;;;-4.30;99.90;;;;;;4957726;28;20410;-76
2024/01/09 08:00:07;;;;;;;8.63;3.67;;;-4.30;99.90;;;;;;4942238;28;20042;-76
2024/01/09 08:02:33;;;;;;;8.90;3.83;;;-4.30;99.90;;;;;;4942230;28;20039;-77
2024/01/09 08:04:59;;;;;;;8.68;3.72;;;-4.30;99.90;;;;;;4942120;28;20217;-76
2024/01/09 08:07:25;;;;;;;12.07;3.70;;;-4.30;99.90;;;;;;4942075;28;20053;-77
2024/01/09 08:09:51;;;;;;;8.13;3.45;;;-4.30;99.90;;;;;;4941910;28;20479;-76
2024/01/09 08:12:16;;;;;;;9.00;3.33;;;-4.30;99.90;;;;;;4941796;28;20039;-76
2024/01/09 08:14:42;;;;;;;8.32;3.53;;;-4.30;99.90;;;;;;4941608;28;20050;-77
2024/01/09 08:17:08;;;;;;;8.35;3.38;;;-4.30;99.90;;;;;;4975396;28;20039;-77
2024/01/09 08:19:33;;;;;;;6.85;3.33;;;-4.30;99.90;;;;;;4975393;28;20121;-77
2024/01/09 08:22:58;;;;;;;;;;;;;;;;;;;;;
2024/01/09 08:26:40;;;;;;;;;;;;;;;;;;;;;
2024/01/09 08:37:03;;;;;;;;;;;;;;;;;;;;;
2024/01/09 08:55:47;;;;;;;;;;;;;;;;;;;;;
2024/01/09 08:59:42;;;;;;;;;;;;;;;;;;;;;
2024/01/09 09:03:27;;;;;;;;;;;;;;;;;;;;;
2024/01/09 09:07:40;;;;;;;;;;;;;;;;;;;;;
2024/01/09 09:12:41;;;;;;;7.38;2.95;;;0.30;99.90;;;;;;5055573;23;20042;-76
2024/01/09 09:15:07;;;;;;;7.60;2.75;;;-0.50;99.90;;;;;;4940663;28;20553;-76
2024/01/09 09:17:33;;;;;;;6.38;2.55;;;-1.20;99.90;;;;;;4940777;28;20045;-76
2024/01/09 09:19:59;;;;;;;7.00;3.00;;;-1.80;99.90;;;;;;4974712;28;20043;-77
2024/01/09 09:25:38;;;;;;;;;;;;;;;;;;;;;
2024/01/09 09:28:58;;;;;;;;;;;;;;;;;;;;;
2024/01/09 09:32:03;;;;;;;9.18;2.88;;;-2.90;99.90;;;;;;4992749;28;20094;-76
2024/01/09 09:35:25;;;;;;;7.18;2.72;;;-3.00;99.90;;;;;;4986279;28;20405;-76
2024/01/09 09:37:50;;;;;;;5.70;2.40;;;-3.10;99.90;;;;;;4985528;28;20478;-77
2024/01/09 09:40:16;;;;;;;9.60;2.85;;;-3.20;99.90;;;;;;4963519;28;20134;-76
2024/01/09 09:42:44;;;;;;;5.95;3.22;;;-3.20;99.90;;;;;;4979681;28;20065;-76
2024/01/09 09:45:12;;;;;;;6.78;2.35;;;-3.20;99.90;;;;;;4979581;28;20042;-75
2024/01/09 09:47:39;;;;;;;7.63;3.05;;;-3.10;99.90;;;;;;4979557;28;20548;-76
2024/01/09 09:50:08;;;;;;;4.70;2.17;;;-3.20;99.90;;;;;;4997741;28;20050;-79
2024/01/09 09:52:36;;;;;;;8.70;2.83;;;-3.10;99.90;;;;;;4979481;28;20038;-76
2024/01/09 09:55:02;;;;;;;5.90;2.50;;;-3.10;99.90;;;;;;4997377;28;20030;-77
2024/01/09 09:57:28;;;;;;;6.68;2.78;;;-3.10;99.90;;;;;;4979671;28;20371;-75
2024/01/09 09:59:54;;;;;;;5.38;2.00;;;-3.00;99.90;;;;;;4996854;28;20121;-76
2024/01/09 10:02:26;;;;;;;5.47;2.08;;;-3.00;99.90;;;;;;4979383;28;20068;-78
2024/01/09 10:04:54;;;;;;;5.40;2.30;;;-2.90;99.90;;;;;;4979807;28;20073;-75
2024/01/09 10:07:21;;;;;;;6.30;2.40;;;-2.90;99.90;;;;;;4979048;28;20058;-74
2024/01/09 10:09:53;;;;;;;8.07;2.33;;;-2.80;99.90;;;;;;4979082;28;20393;-75
2024/01/09 10:12:22;;;;;;;4.05;1.92;;;-2.70;99.90;;;;;;4979943;28;20081;-74
2024/01/09 10:15:09;;;;;;;7.05;2.70;;;-2.70;99.90;;;;;;4979208;28;20062;-74
2024/01/09 10:17:39;;;;;;;5.63;2.25;;;-2.60;99.90;;;;;;4996389;28;20093;-74
2024/01/09 10:20:10;;;;;;;5.68;1.75;;;-2.50;99.90;;;;;;4996742;28;20052;-73
2024/01/09 10:22:38;;;;;;;6.90;2.38;;;-2.30;99.90;;;;;;4962808;28;20073;-74
2024/01/09 10:25:13;;;;;;;5.32;2.20;;;-2.00;99.90;;;;;;4978780;28;20042;-74
2024/01/09 10:27:40;;;;;;;8.10;2.55;;;-1.70;99.90;;;;;;4996493;28;20049;-73
2024/01/09 10:30:10;;;;;;;6.30;2.17;;;-1.40;99.90;;;;;;4979043;28;20398;-74
2024/01/09 10:32:38;;;;;;;5.55;2.30;;;-1.20;99.90;;;;;;4978692;28;20120;-74
2024/01/09 10:35:05;;;;;;;5.15;2.38;;;-1.10;99.90;;;;;;4996323;28;20081;-80
2024/01/09 10:37:31;;;;;;;6.88;2.85;;;-1.00;99.90;;;;;;4995899;28;20129;-74
2024/01/09 10:39:58;;;;;;;5.68;2.60;;;-1.00;99.90;;;;;;4996330;28;20038;-74
2024/01/09 10:42:23;;;;;;;6.35;2.33;;;-1.00;99.90;;;;;;4979137;28;20148;-74
2024/01/09 10:44:50;;;;;;;5.35;2.15;;;-1.10;99.90;;;;;;4978514;28;20046;-73
2024/01/09 10:47:17;;;;;;;5.63;2.40;;;-1.10;99.90;;;;;;4978794;28;20038;-75
2024/01/09 10:49:45;;;;;;;5.85;2.35;;;-1.00;99.90;;;;;;4995839;28;20046;-74
2024/01/09 10:52:15;;;;;;;5.55;2.10;;;-1.00;99.90;;;;;;4978556;28;20441;-73
2024/01/09 10:54:43;;;;;;;6.35;2.50;;;-1.00;99.90;;;;;;4978532;28;20042;-75
2024/01/09 10:57:13;;;;;;;5.57;2.38;;;-0.90;99.90;;;;;;4962605;28;20054;-75
2024/01/09 10:59:41;;;;;;;6.18;2.40;;;-0.80;99.90;;;;;;4978512;28;20043;-75
2024/01/09 11:02:16;;;;;;;5.97;2.58;;;-0.80;99.90;;;;;;4962146;28;20137;-75
2024/01/09 11:04:45;;;;;;;5.25;2.15;;;-0.70;99.90;;;;;;4995867;28;20034;-76
2024/01/09 11:07:15;;;;;;;5.70;2.30;;;-0.60;99.90;;;;;;4978527;28;20035;-77
2024/01/09 11:09:46;;;;;;;4.90;2.13;;;-0.50;99.90;;;;;;4996084;28;20049;-74
2024/01/09 11:12:17;;;;;;;5.95;2.35;;;-0.40;99.90;;;;;;4995708;28;20312;-74
2024/01/09 11:14:46;;;;;;;5.80;2.35;;;-0.30;99.90;;;;;;4978195;28;20049;-75
2024/01/09 11:17:13;;;;;;;8.25;3.05;;;0.00;99.90;;;;;;4995625;28;20038;-75
2024/01/09 11:19:39;;;;;;;4.72;2.10;;;0.60;99.90;;;;;;4978284;28;20042;-75
2024/01/09 11:22:16;;;;;;;7.15;3.08;;;0.90;99.90;;;;;;4995664;28;20113;-76
2024/01/09 11:24:45;;;;;;;6.20;2.60;;;1.00;99.90;;;;;;4977836;28;20038;-76
2024/01/09 11:27:17;;;;;;;5.90;2.40;;;0.90;99.90;;;;;;4977668;28;20078;-76
2024/01/09 11:29:50;;;;;;;7.25;2.90;;;0.80;99.90;;;;;;4977816;28;20046;-76
2024/01/09 11:32:16;;;;;;;6.88;3.42;;;0.80;99.90;;;;;;4977964;28;20088;-77
2024/01/09 11:35:06;;;;;;;5.32;2.60;;;0.80;99.90;;;;;;4977885;28;20137;-77
2024/01/09 11:37:32;;;;;;;5.40;2.53;;;0.70;99.90;;;;;;4963975;28;20038;-76
2024/01/09 11:39:59;;;;;;;5.63;2.40;;;0.90;99.90;;;;;;4995750;28;20097;-70
2024/01/09 11:42:25;;;;;;;5.25;2.55;;;0.80;99.90;;;;;;4978310;28;20054;-72
2024/01/09 11:44:52;;;;;;;5.20;2.22;;;1.00;99.90;;;;;;4977475;28;20121;-74
2024/01/09 11:47:18;;;;;;;4.72;2.28;;;1.00;99.90;;;;;;4977785;28;20536;-76
2024/01/09 11:49:43;;;;;;;5.43;2.55;;;1.00;99.90;;;;;;4977393;28;20086;-75
2024/01/09 11:52:09;;;;;;;6.25;2.47;;;1.00;99.90;;;;;;4994946;28;20045;-76
2024/01/09 11:54:35;;;;;;;5.72;2.63;;;1.10;99.90;;;;;;4994853;28;20406;-73
2024/01/09 11:57:00;;;;;;;6.57;2.80;;;1.20;99.90;;;;;;4961064;28;20125;-75
2024/01/09 11:59:29;;;;;;;5.13;2.83;;;1.20;99.90;;;;;;4994756;28;20117;-75
2024/01/09 12:01:55;;;;;;;5.05;2.50;;;1.30;99.90;;;;;;4976589;28;20406;-74
2024/01/09 12:04:22;;;;;;;4.95;2.63;;;1.30;99.90;;;;;;4977142;28;20038;-76
2024/01/09 12:06:47;;;;;;;5.00;2.55;;;1.30;99.90;;;;;;4994586;28;20047;-77
2024/01/09 12:09:13;;;;;;;6.50;2.30;;;1.40;99.90;;;;;;4994658;28;20046;-73
2024/01/09 12:11:39;;;;;;;4.32;2.22;;;1.50;99.90;;;;;;4977501;28;20490;-73
2024/01/09 12:14:07;;;;;;;8.45;2.72;;;1.60;99.90;;;;;;4994455;28;20089;-77
2024/01/09 12:16:32;;;;;;;11.20;3.20;;;1.60;99.90;;;;;;4994469;28;20042;-74
2024/01/09 12:18:59;;;;;;;4.40;2.20;;;1.60;99.90;;;;;;4994445;28;20050;-75
2024/01/09 12:21:26;;;;;;;6.25;2.50;;;1.70;99.90;;;;;;4977047;28;20046;-75
2024/01/09 12:23:55;;;;;;;5.40;2.45;;;1.80;99.90;;;;;;4976855;28;20057;-76
2024/01/09 12:26:22;;;;;;;6.28;2.53;;;1.80;99.90;;;;;;4976731;28;20046;-77
2024/01/09 12:28:48;;;;;;;8.65;3.00;;;1.80;99.90;;;;;;4976828;28;20441;-73
2024/01/09 12:31:19;;;;;;;6.38;3.28;;;1.80;99.90;;;;;;4994097;28;20100;-74
2024/01/09 12:33:45;;;;;;;4.72;2.47;;;2.00;99.90;;;;;;4994117;28;20390;-74
2024/01/09 12:36:11;;;;;;;3.50;2.00;;;2.00;99.90;;;;;;4976583;28;20042;-74
2024/01/09 12:38:38;;;;;;;5.47;2.40;;;2.00;99.90;;;;;;4960401;28;20172;-75
2024/01/09 12:41:07;;;;;;;6.07;2.72;;;1.90;99.90;;;;;;4976384;28;20054;-73
2024/01/09 12:43:33;;;;;;;5.18;2.50;;;2.00;99.90;;;;;;4976511;28;20085;-79
2024/01/09 12:46:04;;;;;;;5.07;2.72;;;2.00;99.90;;;;;;4976376;28;20087;-74
2024/01/09 12:48:31;;;;;;;8.32;2.70;;;2.10;99.90;;;;;;4976623;28;20046;-78
2024/01/09 12:51:06;;;;;;;5.25;2.80;;;2.10;99.90;;;;;;4976281;28;20074;-76
2024/01/09 12:53:33;;;;;;;5.93;2.47;;;2.00;99.90;;;;;;4994302;28;20441;-78
2024/01/09 12:56:13;;;;;;;6.28;2.90;;;2.10;99.90;;;;;;4976647;28;20046;-75
2024/01/09 12:58:44;;;;;;;5.80;2.50;;;2.10;99.90;;;;;;4994149;28;20494;-75
2024/01/09 13:01:11;;;;;;;4.63;2.50;;;2.10;99.90;;;;;;4976722;28;20529;-75
2024/01/09 13:03:38;;;;;;;5.45;2.67;;;2.10;99.90;;;;;;4976679;28;20050;-78
2024/01/09 13:06:04;;;;;;;5.13;2.33;;;2.20;99.90;;;;;;4994154;28;20045;-77
2024/01/09 13:08:34;;;;;;;5.78;2.58;;;2.20;99.90;;;;;;4976453;28;20053;-77
2024/01/09 13:11:04;;;;;;;5.28;2.45;;;2.20;99.90;;;;;;4976052;28;20049;-76
2024/01/09 13:13:31;;;;;;;6.68;2.40;;;2.30;99.90;;;;;;4980074;28;20042;-75
2024/01/09 13:15:57;;;;;;;4.85;2.55;;;2.30;99.90;;;;;;4964241;28;20398;-76
2024/01/09 13:18:22;;;;;;;6.28;2.28;;;2.30;99.90;;;;;;4980382;28;20045;-75
2024/01/09 13:20:49;;;;;;;5.40;2.60;;;2.40;99.90;;;;;;4980198;28;20174;-77
2024/01/09 13:23:17;;;;;;;4.60;2.25;;;2.70;99.90;;;;;;4998104;28;20038;-77
2024/01/09 13:25:45;;;;;;;5.80;2.63;;;3.10;99.90;;;;;;4980495;28;20050;-76
2024/01/09 13:28:11;;;;;;;4.50;2.28;;;3.40;99.90;;;;;;4979943;28;20046;-77
2024/01/09 13:30:38;;;;;;;6.32;2.70;;;3.30;99.90;;;;;;4979961;28;20453;-77
2024/01/09 13:33:04;;;;;;;5.28;2.30;;;3.20;99.90;;;;;;4997663;28;20058;-78
2024/01/09 13:35:34;;;;;;;5.28;2.60;;;3.20;99.90;;;;;;4979916;28;20054;-77
2024/01/09 13:38:00;;;;;;;4.28;2.28;;;3.20;99.90;;;;;;4979807;28;20034;-74
2024/01/09 13:40:26;;;;;;;5.30;2.50;;;3.30;99.90;;;;;;4979929;28;20064;-75
2024/01/09 13:42:52;;;;;;;5.30;2.50;;;3.40;99.90;;;;;;4979946;28;20121;-75
2024/01/09 13:45:18;;;;;;;5.65;2.25;;;3.10;99.90;;;;;;4979920;28;20386;-77
2024/01/09 13:47:44;;;;;;;5.55;2.40;;;2.90;99.90;;;;;;4979818;28;20438;-75
2024/01/09 13:50:11;;;;;;;3.90;2.00;;;3.00;99.90;;;;;;4997144;28;20042;-77
2024/01/09 13:52:37;;;;;;;4.88;2.35;;;3.20;99.90;;;;;;4979486;28;20124;-77
2024/01/09 13:55:05;;;;;;;6.82;2.70;;;3.40;99.90;;;;;;4979539;28;20050;-78
2024/01/09 13:57:31;;;;;;;5.90;2.70;;;3.60;99.90;;;;;;4979468;28;20046;-74
2024/01/09 13:59:57;;;;;;;5.88;2.65;;;3.50;99.90;;;;;;4979460;28;20049;-74
2024/01/09 14:02:23;;;;;;;4.70;2.53;;;3.20;99.90;;;;;;4979245;28;20042;-77
2024/01/09 14:04:49;;;;;;;4.70;2.30;;;2.90;99.90;;;;;;4997294;28;20042;-77
2024/01/09 14:07:15;;;;;;;4.28;2.30;;;2.70;99.90;;;;;;4996762;28;20038;-74
2024/01/09 14:09:40;;;;;;;5.47;2.35;;;2.60;99.90;;;;;;4979200;28;20050;-75
2024/01/09 14:12:06;;;;;;;5.88;2.28;;;2.60;99.90;;;;;;4979074;28;20049;-77
2024/01/09 14:14:33;;;;;;;4.63;2.03;;;3.00;99.90;;;;;;4997016;28;20438;-76
2024/01/09 14:17:00;;;;;;;3.83;1.90;;;3.30;99.90;;;;;;4979240;28;20499;-76
2024/01/09 14:19:26;;;;;;;5.40;2.20;;;3.40;99.90;;;;;;4978943;28;20042;-75
2024/01/09 14:21:52;;;;;;;5.28;2.15;;;3.50;99.90;;;;;;4979638;28;20381;-75
2024/01/09 14:24:18;;;;;;;3.83;2.30;;;3.50;99.90;;;;;;4978134;28;20050;-74
2024/01/09 14:26:46;;;;;;;6.63;2.10;;;3.50;99.90;;;;;;4978857;28;20109;-75
2024/01/09 14:29:12;;;;;;;5.55;2.25;;;3.40;99.90;;;;;;4979013;28;20046;-77
2024/01/09 14:31:38;;;;;;;5.40;2.58;;;3.40;99.90;;;;;;4996377;28;20125;-76
2024/01/09 14:34:04;;;;;;;7.53;2.13;;;3.30;99.90;;;;;;4996567;28;20185;-76
2024/01/09 14:36:29;;;;;;;4.57;2.33;;;3.10;99.90;;;;;;4996478;28;20061;-77
2024/01/09 14:38:55;;;;;;;4.25;1.95;;;2.60;99.90;;;;;;4978638;28;20394;-75
2024/01/09 14:41:21;;;;;;;3.28;1.75;;;2.00;99.90;;;;;;4996085;28;20042;-76
2024/01/09 14:43:46;;;;;;;3.85;1.88;;;1.60;99.90;;;;;;4978872;28;20490;-74
2024/01/09 14:46:20;;;;;;;5.93;2.05;;;1.30;99.90;;;;;;4995948;28;20137;-77
2024/01/09 14:48:46;;;;;;;5.70;2.40;;;1.00;99.90;;;;;;4996252;28;20042;-77
2024/01/09 14:51:12;;;;;;;4.05;2.00;;;0.80;99.90;;;;;;4996299;28;20422;-77
2024/01/09 14:53:38;;;;;;;4.68;1.95;;;0.60;99.90;;;;;;4996160;28;20077;-76
2024/01/09 14:56:03;;;;;;;5.38;1.92;;;0.50;99.90;;;;;;4979145;28;20035;-74
2024/01/09 14:58:29;;;;;;;6.80;2.35;;;0.30;99.90;;;;;;4978241;28;20108;-76
2024/01/09 15:00:58;;;;;;;3.47;1.80;;;0.20;99.90;;;;;;4995953;28;20118;-77
2024/01/09 15:03:23;;;;;;;4.75;2.05;;;0.10;99.90;;;;;;4978503;28;20038;-75
2024/01/09 15:05:50;;;;;;;7.47;2.05;;;0.00;99.90;;;;;;4978516;28;20124;-74
2024/01/09 15:08:16;;;;;;;4.28;1.90;;;-0.10;99.90;;;;;;4978234;28;20478;-74
2024/01/09 15:10:41;;;;;;;4.43;2.15;;;-0.10;99.90;;;;;;4978156;28;20050;-77
2024/01/09 15:13:07;;;;;;;5.45;2.50;;;-0.20;99.90;;;;;;4996047;28;20042;-74
2024/01/09 15:15:33;;;;;;;4.70;2.33;;;-0.30;99.90;;;;;;4996070;28;20491;-73
2024/01/09 15:17:59;;;;;;;4.35;2.08;;;-0.40;99.90;;;;;;4978119;28;20506;-74
2024/01/09 15:20:26;;;;;;;5.22;2.58;;;-0.50;99.90;;;;;;4978016;28;20058;-75
2024/01/09 15:22:52;;;;;;;4.05;1.73;;;-0.50;99.90;;;;;;4978029;28;20121;-76
2024/01/09 15:25:17;;;;;;;3.63;1.80;;;-0.50;99.90;;;;;;4978162;28;20138;-76
2024/01/09 15:27:43;;;;;;;4.22;1.80;;;-0.60;99.90;;;;;;4995188;28;20042;-75
2024/01/09 15:30:10;;;;;;;3.70;1.92;;;-0.70;99.90;;;;;;4961938;28;20046;-74
2024/01/09 15:32:36;;;;;;;5.63;2.03;;;-0.70;99.90;;;;;;4978030;28;20172;-77
2024/01/09 15:35:02;;;;;;;4.88;1.95;;;-0.80;99.90;;;;;;4977887;28;20120;-75
2024/01/09 15:37:27;;;;;;;4.88;2.20;;;-0.80;99.90;;;;;;4978167;28;20039;-75
2024/01/09 15:39:53;;;;;;;5.03;2.55;;;-0.90;99.90;;;;;;4995143;28;20544;-76
2024/01/09 15:42:19;;;;;;;6.20;2.10;;;-0.90;99.90;;;;;;4977700;28;20042;-76
2024/01/09 15:44:45;;;;;;;5.30;2.20;;;-0.90;99.90;;;;;;4977756;28;20046;-76
2024/01/09 15:47:11;;;;;;;4.88;2.28;;;-1.00;99.90;;;;;;4977829;28;20042;-78
2024/01/09 15:49:39;;;;;;;9.65;2.40;;;-1.00;99.90;;;;;;4995376;28;20030;-76
2024/01/09 15:52:08;;;;;;;7.50;2.55;;;-1.10;99.90;;;;;;4994875;28;20034;-78
2024/01/09 15:54:38;;;;;;;6.53;2.33;;;-1.10;99.90;;;;;;4995254;28;20046;-77
2024/01/09 15:57:07;;;;;;;5.78;2.38;;;-1.10;99.90;;;;;;4994864;28;20117;-77
2024/01/09 15:59:33;;;;;;;4.47;1.85;;;-1.20;99.90;;;;;;4995167;28;20116;-77
2024/01/09 16:01:58;;;;;;;4.43;2.05;;;-1.20;99.90;;;;;;4977485;28;20054;-76
2024/01/09 16:04:26;;;;;;;4.38;2.17;;;-1.20;99.90;;;;;;4995030;28;20042;-76
2024/01/09 16:06:52;;;;;;;5.30;2.17;;;-1.20;99.90;;;;;;4977320;28;20486;-76
2024/01/09 16:09:17;;;;;;;5.07;2.28;;;-1.20;99.90;;;;;;4977223;28;20053;-75
2024/01/09 16:11:47;;;;;;;6.15;2.05;;;-1.30;99.90;;;;;;4994480;28;20494;-76
2024/01/09 16:14:12;;;;;;;4.20;2.15;;;-1.30;99.90;;;;;;4977191;28;20430;-76
2024/01/09 16:16:39;;;;;;;4.55;2.17;;;-1.30;99.90;;;;;;4994259;28;20069;-77
2024/01/09 16:19:05;;;;;;;6.13;2.10;;;-1.30;99.90;;;;;;4976773;28;20046;-74
2024/01/09 16:21:31;;;;;;;4.35;2.30;;;-1.40;99.90;;;;;;4994570;28;20058;-76
2024/01/09 16:23:56;;;;;;;5.03;2.30;;;-1.40;99.90;;;;;;4994507;28;20042;-77
2024/01/09 16:26:23;;;;;;;5.40;2.45;;;-1.40;99.90;;;;;;4976817;28;20101;-77
2024/01/09 16:28:49;;;;;;;4.85;2.40;;;-1.40;99.90;;;;;;4960766;28;20042;-75
2024/01/09 16:31:15;;;;;;;4.40;2.10;;;-1.40;99.90;;;;;;4994330;28;20057;-77
2024/01/09 16:33:43;;;;;;;5.70;2.20;;;-1.50;99.90;;;;;;4976663;28;20157;-76
2024/01/09 16:36:12;;;;;;;4.60;2.28;;;-1.50;99.90;;;;;;4994369;28;20054;-77
2024/01/09 16:38:38;;;;;;;5.72;2.30;;;-1.50;99.90;;;;;;4976635;28;20058;-76
2024/01/09 16:41:06;;;;;;;4.88;2.08;;;-1.60;99.90;;;;;;4976436;28;20038;-75
2024/01/09 16:43:32;;;;;;;8.98;2.70;;;-1.60;99.90;;;;;;4976536;28;20479;-76
2024/01/09 16:45:58;;;;;;;5.28;2.63;;;-1.60;99.90;;;;;;4960379;28;20053;-75
2024/01/09 16:48:23;;;;;;;7.40;2.88;;;-1.60;99.90;;;;;;4976243;28;20046;-75
2024/01/09 16:50:49;;;;;;;7.13;3.13;;;-1.60;99.90;;;;;;4976441;28;20038;-75
2024/01/09 16:53:14;;;;;;;6.35;2.92;;;-1.70;99.90;;;;;;4993839;28;20042;-77
2024/01/09 16:55:40;;;;;;;5.88;2.88;;;-1.70;99.90;;;;;;4976536;28;20371;-76
2024/01/09 16:58:06;;;;;;;9.52;3.22;;;-1.70;99.90;;;;;;4976433;28;20042;-76
2024/01/09 17:00:32;;;;;;;10.07;3.28;;;-1.80;99.90;;;;;;4976600;28;20057;-76
2024/01/09 17:02:58;;;;;;;9.82;4.55;;;-1.80;99.90;;;;;;4976267;28;20046;-75
2024/01/09 17:05:26;;;;;;;9.43;3.20;;;-1.80;99.90;;;;;;4976618;28;20045;-74
2024/01/09 17:07:52;;;;;;;7.35;3.00;;;-1.80;99.90;;;;;;4976375;28;20054;-77
2024/01/09 17:10:18;;;;;;;8.05;3.63;;;-1.90;99.90;;;;;;4977120;28;20365;-76
2024/01/09 17:12:43;;;;;;;7.63;3.63;;;-1.90;99.90;;;;;;4976166;28;20482;-76
2024/01/09 17:15:09;;;;;;;8.98;3.97;;;-1.90;99.90;;;;;;4976322;28;20045;-75
2024/01/09 17:17:35;;;;;;;9.48;4.70;;;-2.00;99.90;;;;;;4976039;28;20069;-76
2024/01/09 17:20:00;;;;;;;7.85;3.65;;;-1.90;99.90;;;;;;4993980;28;20065;-75
2024/01/09 17:22:26;;;;;;;6.47;3.38;;;-1.90;99.90;;;;;;4993612;28;20085;-75
2024/01/09 17:24:51;;;;;;;8.20;3.60;;;-2.00;99.90;;;;;;4976113;28;20038;-75
2024/01/09 17:27:20;;;;;;;8.20;3.63;;;-2.00;99.90;;;;;;4976106;28;20101;-76
2024/01/09 17:29:46;;;;;;;9.63;3.88;;;-2.00;99.90;;;;;;4993707;28;20046;-75
2024/01/09 17:32:12;;;;;;;10.27;4.70;;;-2.00;99.90;;;;;;4967625;23;20046;-75
2024/01/09 17:34:38;;;;;;;12.52;4.75;;;-2.00;99.90;;;;;;4974603;28;20522;-75
2024/01/09 17:37:04;;;;;;;13.07;4.53;;;-2.00;99.90;;;;;;4974120;28;20042;-75
2024/01/09 17:39:30;;;;;;;10.55;4.32;;;-2.00;99.90;;;;;;4974309;28;20471;-74
2024/01/09 17:42:44;;;;;;;;;;;;;;;;;;;;;
2024/01/09 17:45:19;;;;;;;8.48;3.78;;;-2.10;99.90;;;;;;4972450;28;20106;-74
2024/01/09 17:47:45;;;;;;;9.02;4.28;;;-2.10;99.90;;;;;;4956756;28;20043;-76